• Join FlightAware (Why Join?)
  • Login
  • US Flag 
11:27AM EDT


 

Airport Tracker/Info


-or-


 

Live Flight TrackerFlight Track Log ✈ KAL1337 ✈ 18-Nov-2013 ✈ RKSS / GMP - RKJY / RSU

Flight Track Log - Related Links

Times and Time Zones

All times are in EST time to prevent confusion due to time zone crossing. See the KAL1337 flight status page for this flight to view local times or setup timezone preferences in your user account.

Time Position Orientation Groundspeed Altitude Reporting Facility
EST Latitude Longitude Course Direction KTS MPH feet Rate Location/Type
02:57AM 37.4733 126.8173 166° South  Level Estimated
02:58AM 37.3882 126.8440 166° South  Level Estimated
02:59AM 37.3032 126.8706 166° South  Level Estimated
03:00AM 37.2181 126.8971 166° South  Level Estimated
03:01AM 37.1303 126.9244 166° South  Level Estimated
03:02AM 37.0424 126.9517 166° South  Level Estimated
03:03AM 36.9546 126.9789 166° South  Level Estimated
03:04AM 36.8668 127.0061 166° South  Level Estimated
03:05AM 36.7789 127.0331 166° South  Level Estimated
03:06AM 36.6911 127.0602 166° South  Level Estimated
03:07AM 36.6032 127.0871 166° South  Level Estimated
03:08AM 36.5154 127.1140 166° South  Level Estimated
03:09AM 36.4275 127.1409 166° South  Level Estimated
03:10AM 36.3396 127.1676 166° South  Level Estimated
03:11AM 36.2518 127.1943 166° South  Level Estimated
03:12AM 36.1639 127.2210 166° South  Level Estimated
03:13AM 36.0760 127.2476 166° South  Level Estimated
03:14AM 35.9881 127.2741 166° South  Level Estimated
03:15AM 35.9002 127.3006 166° South  Level Estimated
03:16AM 35.8123 127.3270 166° South  Level Estimated
03:17AM 35.7244 127.3534 166° South  Level Estimated
03:18AM 35.6364 127.3797 166° South  Level Estimated
03:19AM 35.5485 127.4059 166° South  Level Estimated
03:20AM 35.4606 127.4321 166° South  Level Estimated
03:21AM 35.3727 127.4583 166° South  Level Estimated
03:22AM 35.2847 127.4843 166° South  Level Estimated
03:23AM 35.1968 127.5103 166° South  Level Estimated
03:24AM 35.1088 127.5363 166° South  Level Estimated
03:25AM 35.0209 127.5622 166° South  Level Estimated
03:26AM 34.9329 127.5880 166° South  Level Estimated
03:27AM 34.8449 127.6138 166° South  Level Estimated
03:28AM 34.8398 127.6153 166° South  Level Estimated
03:29AM 34.8398 127.6153 180° South  Level Estimated
03:30AM 34.8398 127.6153 180° South  Level Estimated
03:31AM 34.8398 127.6153 180° South  Level Estimated
03:32AM 34.8398 127.6153 180° South  Level Estimated
03:33AM 34.8398 127.6153 180° South  Level Estimated
03:34AM 34.8398 127.6153 180° South  Level Estimated